Freyburg, Texas
Current Conditions -  °F | °C
As of 7:15 PM on Sunday 23 Nov 2014 (Local Time) from K3T5 Reporting Station
Clear Clear  
Wind Chill: 68°   Ceiling: Unl
Heat Index: 68°   Visibility: 10mi
Dew Point: 52°   Wind: 3mph
Humidity: 55%   Direction: 210°SSW
Pressure: 29.6"   Gusts: NA
Location:  29.7125°N, 96.9231°W
Report Text: K3T5 240115Z AUTO 21003KT 10SM CLR 20/11 A2960 RMK AO2 T02020110
Loading
Personal Weather Stations






























Interactive Weather Map New forecast layout! Learn more

10-Day Weather Forecast

Advertisements
Track Severe Weather on mobile